KAHQ

Wahoo Municipal Airport

Wahoo, Nebraska, USA
METAR KAHQ 241955Z AUTO 00000KT 10SM BKN011 OVC019 M02/M04 A2976 RMK AO2 T10251042
Observed Flight Rules
Feb-24 @ 19:55 UTC (19 minutes ago) Marginal Visual Flight Rules
Wind Visibility Clouds
Calm 10 miles
  • Broken at 1,100' AGL
  • Overcast at 1,900' AGL
Temperatures Readings
Current -3°C / 27°F
Dewpoint -4°C / 25°F
Humidity 93%
Altimeter 29.76" Hg
Pressure 1008 hPa
Elevation 374
METAR KAHQ 241955Z AUTO 00000KT 10SM BKN011 OVC019 M02/M04 A2976 RMK AO2 T10251042
Observed Flight Rules
Feb-24 @ 19:55 UTC
(19 minutes ago)
MVFR
Wind Visibility
Calm 10 miles
Clouds
  • Broken at 1,100' AGL
  • Overcast at 1,900' AGL
Temperature Dewpoint
-3°C / 27°F -4°C / 25°F
Humidity Altimeter Pressure
93% 29.76" Hg 1008 hPa